Time;durP1;ratioP1;P1;durP2;ratioP2;P2;SDS_P1;SDS_P2;PMS_P1;PMS_P2;Temp;Humidity;BMP_temperature;BMP_pressure;BME280_temperature;BME280_humidity;BME280_pressure;Samples;Min_cycle;Max_cycle;Signal;HPM_P1;HPM_P2
2023/01/05 00:01:07;;;;;;;3.40;2.00;;;11.10;99.90;;;;;;5066006;28;20024;-60
2023/01/05 00:03:33;;;;;;;2.28;1.80;;;11.00;99.90;;;;;;5066026;28;20052;-59
2023/01/05 00:06:19;;;;;;;2.90;1.90;;;11.00;99.90;;;;;;5065973;28;20051;-60
2023/01/05 00:08:44;;;;;;;2.63;1.70;;;11.10;99.90;;;;;;5065390;28;20158;-60
2023/01/05 00:22:30;;;;;;;2.30;1.80;;;11.10;99.90;;;;;;5065674;28;20056;-60
2023/01/05 00:25:00;;;;;;;1.45;1.23;;;11.10;99.90;;;;;;5065545;28;20036;-60
2023/01/05 00:27:26;;;;;;;2.42;1.50;;;11.10;99.90;;;;;;5099099;28;20436;-59
2023/01/05 00:29:51;;;;;;;2.22;1.80;;;11.10;99.90;;;;;;5065497;28;20079;-60
2023/01/05 00:32:17;;;;;;;2.67;1.80;;;11.10;99.90;;;;;;5066800;28;20092;-60
2023/01/05 00:34:43;;;;;;;3.13;1.67;;;11.10;99.90;;;;;;5048465;28;20074;-59
2023/01/05 00:37:08;;;;;;;3.38;1.88;;;11.10;99.90;;;;;;5066554;28;20041;-59
2023/01/05 00:39:34;;;;;;;2.45;1.75;;;11.10;99.90;;;;;;5066582;28;20040;-60
2023/01/05 00:41:59;;;;;;;2.40;1.60;;;11.10;99.90;;;;;;5065210;28;20029;-59
2023/01/05 00:44:25;;;;;;;2.92;1.70;;;11.10;99.90;;;;;;5064976;28;20092;-59
2023/01/05 00:46:50;;;;;;;2.10;1.67;;;11.10;99.90;;;;;;5066384;28;20029;-60
2023/01/05 00:49:16;;;;;;;2.45;1.58;;;11.10;99.90;;;;;;5066505;28;20037;-59
2023/01/05 00:51:41;;;;;;;2.25;1.55;;;11.10;99.90;;;;;;5065016;28;20075;-59
2023/01/05 00:54:07;;;;;;;2.00;1.80;;;11.10;99.90;;;;;;5065019;28;20024;-60
2023/01/05 00:56:32;;;;;;;2.03;1.27;;;11.10;99.90;;;;;;5064817;28;20052;-59
2023/01/05 00:58:58;;;;;;;3.85;1.50;;;11.10;99.90;;;;;;5064987;28;20051;-59
2023/01/05 01:01:23;;;;;;;1.77;1.50;;;11.10;99.90;;;;;;5065175;28;20219;-60
2023/01/05 01:03:49;;;;;;;3.03;1.63;;;11.10;99.90;;;;;;5066191;28;20051;-60
2023/01/05 01:06:15;;;;;;;2.22;1.40;;;11.10;99.90;;;;;;5064753;28;20039;-60
2023/01/05 01:08:40;;;;;;;1.95;1.52;;;11.10;99.90;;;;;;5065596;28;20032;-60
2023/01/05 01:11:06;;;;;;;1.75;1.45;;;11.10;99.90;;;;;;5098110;28;20037;-60
2023/01/05 01:13:32;;;;;;;1.98;1.55;;;11.10;99.90;;;;;;5064385;28;20071;-60
2023/01/05 01:15:57;;;;;;;1.52;1.30;;;11.10;99.90;;;;;;5064519;28;20037;-60
2023/01/05 01:18:23;;;;;;;2.00;1.40;;;11.10;99.90;;;;;;5064307;28;20139;-60
2023/01/05 01:20:48;;;;;;;2.45;1.58;;;11.10;99.90;;;;;;5064582;28;20112;-60
2023/01/05 01:23:14;;;;;;;2.00;1.40;;;11.10;99.90;;;;;;5065770;28;20021;-59
2023/01/05 01:25:39;;;;;;;1.63;1.23;;;11.10;99.90;;;;;;5065717;28;20499;-60
2023/01/05 01:28:05;;;;;;;2.17;1.30;;;11.20;99.90;;;;;;5065386;28;20052;-60
2023/01/05 01:30:31;;;;;;;1.42;1.33;;;11.20;99.90;;;;;;5064439;28;20029;-60
2023/01/05 01:32:56;;;;;;;1.65;1.30;;;11.10;99.90;;;;;;5063994;28;20029;-59
2023/01/05 01:35:22;;;;;;;1.60;1.30;;;11.10;99.90;;;;;;5047417;28;20033;-60
2023/01/05 01:37:47;;;;;;;1.90;1.38;;;11.20;99.90;;;;;;5065864;28;20029;-59
2023/01/05 01:40:13;;;;;;;1.95;1.35;;;11.10;99.90;;;;;;5064299;28;20194;-60
2023/01/05 01:42:38;;;;;;;2.20;1.60;;;11.10;99.90;;;;;;5065481;28;20036;-60
2023/01/05 01:45:23;;;;;;;1.65;1.52;;;11.20;99.90;;;;;;5063676;28;20029;-60
2023/01/05 01:47:54;;;;;;;2.03;1.40;;;11.10;99.90;;;;;;5064167;28;20033;-59
2023/01/05 01:50:28;;;;;;;1.85;1.52;;;11.10;99.90;;;;;;5063976;28;20414;-59
2023/01/05 01:52:56;;;;;;;2.72;1.80;;;11.20;99.90;;;;;;5065290;28;20033;-59
2023/01/05 01:55:22;;;;;;;2.00;1.52;;;11.10;99.90;;;;;;5063860;28;20036;-60
2023/01/05 01:57:47;;;;;;;3.63;1.50;;;11.10;99.90;;;;;;5063710;28;20481;-60
2023/01/05 02:00:13;;;;;;;2.15;1.50;;;11.20;99.90;;;;;;5063590;28;20051;-59
2023/01/05 02:02:39;;;;;;;2.30;1.35;;;11.20;99.90;;;;;;5063502;28;20029;-60
2023/01/05 02:05:07;;;;;;;1.90;1.30;;;11.20;99.90;;;;;;5063570;28;20029;-60
2023/01/05 02:07:33;;;;;;;2.58;1.38;;;11.20;99.90;;;;;;5063856;28;20036;-60
2023/01/05 02:09:59;;;;;;;1.75;1.40;;;11.20;99.90;;;;;;5064972;28;20086;-60
2023/01/05 02:12:47;;;;;;;1.50;1.27;;;11.20;99.90;;;;;;5063480;28;20033;-60
2023/01/05 02:15:36;;;;;;;2.67;1.52;;;11.20;99.90;;;;;;5065146;28;20089;-60
2023/01/05 02:18:05;;;;;;;2.25;1.60;;;11.20;99.90;;;;;;5063318;28;20037;-60
2023/01/05 02:20:46;;;;;;;1.70;1.48;;;11.20;99.90;;;;;;5063447;28;20029;-60
2023/01/05 02:23:49;;;;;;;1.73;1.45;;;11.20;99.90;;;;;;5063370;28;20086;-60
2023/01/05 02:26:39;;;;;;;3.42;1.33;;;11.20;99.90;;;;;;5064595;28;20116;-60
2023/01/05 02:29:25;;;;;;;1.27;1.10;;;11.20;99.90;;;;;;5064716;28;20049;-60
2023/01/05 02:31:53;;;;;;;;;;;11.20;99.90;;;;;;5063870;28;20071;-60
2023/01/05 02:34:34;;;;;;;1.30;1.20;;;11.20;99.90;;;;;;5064750;28;19961;-60
2023/01/05 02:37:07;;;;;;;3.53;1.30;;;11.20;99.90;;;;;;5064383;28;20044;-59
2023/01/05 02:39:46;;;;;;;1.98;1.35;;;11.20;99.90;;;;;;5063227;28;20025;-60
2023/01/05 02:42:14;;;;;;;2.33;1.65;;;11.20;99.90;;;;;;5063511;28;20040;-60
2023/01/05 02:44:39;;;;;;;2.13;1.85;;;11.30;99.90;;;;;;5063161;28;20104;-60
2023/01/05 02:47:07;;;;;;;2.25;1.70;;;11.20;99.90;;;;;;5063032;28;20041;-61
2023/01/05 02:49:35;;;;;;;1.67;1.58;;;11.20;99.90;;;;;;5063200;28;20094;-60
2023/01/05 02:52:01;;;;;;;4.80;1.60;;;11.20;99.90;;;;;;5063185;28;20164;-60
2023/01/05 02:54:30;;;;;;;1.38;1.27;;;11.20;99.90;;;;;;5063168;28;20151;-60
2023/01/05 02:57:06;;;;;;;1.63;1.30;;;11.20;99.90;;;;;;5063137;28;20084;-60
2023/01/05 02:59:37;;;;;;;1.52;1.20;;;11.20;99.90;;;;;;5046449;28;20032;-60
2023/01/05 03:02:12;;;;;;;3.10;1.40;;;11.20;99.90;;;;;;5063264;28;20096;-60
2023/01/05 03:04:41;;;;;;;2.35;1.40;;;11.20;99.90;;;;;;5046477;28;20052;-60
2023/01/05 03:07:11;;;;;;;1.20;1.10;;;11.20;99.90;;;;;;5062980;28;20064;-60
2023/01/05 03:09:37;;;;;;;1.38;1.10;;;11.20;99.90;;;;;;5063043;28;20151;-60
2023/01/05 03:15:30;;;;;;;1.25;1.02;;;11.20;99.90;;;;;;5063445;28;20048;-60
2023/01/05 03:17:57;;;;;;;2.17;0.90;;;11.20;99.90;;;;;;5063011;28;20472;-60
2023/01/05 03:20:24;;;;;;;1.52;1.10;;;11.20;99.90;;;;;;5063166;28;20058;-60
2023/01/05 03:37:08;;;;;;;1.20;0.93;;;11.20;99.90;;;;;;5066582;28;20040;-60
2023/01/05 03:39:33;;;;;;;1.10;1.00;;;11.20;99.90;;;;;;5066501;28;20084;-60
2023/01/05 03:41:59;;;;;;;0.98;0.88;;;11.20;99.90;;;;;;5066471;28;20025;-60
2023/01/05 03:44:24;;;;;;;1.98;0.90;;;11.20;99.90;;;;;;5049303;28;20029;-60
2023/01/05 03:46:50;;;;;;;0.85;0.75;;;11.20;99.90;;;;;;5065974;28;20029;-60
2023/01/05 03:49:16;;;;;;;1.25;0.90;;;11.20;99.90;;;;;;5099660;28;20035;-61
2023/01/05 03:51:42;;;;;;;0.93;0.88;;;11.20;99.90;;;;;;5049956;28;20091;-60
2023/01/05 03:54:09;;;;;;;0.63;0.60;;;11.20;99.90;;;;;;5099531;28;20099;-60
2023/01/05 03:56:34;;;;;;;1.17;1.00;;;11.30;99.90;;;;;;5066002;28;20389;-60
2023/01/05 03:59:00;;;;;;;1.02;0.90;;;11.30;99.90;;;;;;5065810;28;20056;-60
2023/01/05 04:01:25;;;;;;;1.27;0.95;;;11.20;99.90;;;;;;5065905;28;20025;-61
2023/01/05 04:03:51;;;;;;;1.00;0.80;;;11.20;99.90;;;;;;5065486;28;20370;-60
2023/01/05 04:06:17;;;;;;;1.80;1.08;;;11.20;99.90;;;;;;5065664;28;20029;-60
2023/01/05 04:08:42;;;;;;;1.10;1.00;;;11.30;99.90;;;;;;5065828;28;20032;-60
2023/01/05 04:11:11;;;;;;;2.30;0.70;;;11.20;99.90;;;;;;5067180;28;20071;-60
2023/01/05 04:13:36;;;;;;;1.70;1.10;;;11.20;99.90;;;;;;5066982;28;20033;-60
2023/01/05 04:16:02;;;;;;;1.50;0.80;;;11.20;99.90;;;;;;5066863;28;20039;-60
2023/01/05 04:18:28;;;;;;;1.88;0.80;;;11.20;99.90;;;;;;5067026;28;20039;-61
2023/01/05 04:20:54;;;;;;;1.30;0.85;;;11.30;99.90;;;;;;5099124;28;20025;-60
2023/01/05 04:23:20;;;;;;;0.90;0.75;;;11.30;99.90;;;;;;5098916;28;20017;-60
2023/01/05 04:25:46;;;;;;;1.05;0.70;;;11.30;99.90;;;;;;5066724;28;20029;-60
2023/01/05 04:28:12;;;;;;;1.00;0.80;;;11.20;99.90;;;;;;5065200;28;20051;-60
2023/01/05 04:30:37;;;;;;;1.02;0.85;;;11.20;99.90;;;;;;5066865;28;20025;-60
2023/01/05 04:33:03;;;;;;;1.00;0.90;;;11.20;99.90;;;;;;5065303;28;20080;-61
2023/01/05 04:35:28;;;;;;;0.93;0.77;;;11.20;99.90;;;;;;5065382;28;20033;-60
2023/01/05 04:37:54;;;;;;;1.25;0.90;;;11.20;99.90;;;;;;5065059;28;20041;-60
2023/01/05 04:40:19;;;;;;;0.80;0.70;;;11.20;99.90;;;;;;5066778;28;20102;-60
2023/01/05 04:42:45;;;;;;;1.88;0.90;;;11.30;99.90;;;;;;5065024;28;20021;-60
2023/01/05 04:45:11;;;;;;;1.23;0.63;;;11.20;99.90;;;;;;5065177;28;20029;-60
2023/01/05 04:47:37;;;;;;;1.15;0.70;;;11.20;99.90;;;;;;5064892;28;20032;-60
2023/01/05 04:50:02;;;;;;;0.70;0.70;;;11.20;99.90;;;;;;5064898;28;20100;-60
2023/01/05 04:52:28;;;;;;;0.68;0.60;;;11.20;99.90;;;;;;5064848;28;20033;-61
2023/01/05 04:54:53;;;;;;;2.53;0.95;;;11.20;99.90;;;;;;5066334;28;20037;-60
2023/01/05 04:57:19;;;;;;;0.95;0.70;;;11.20;99.90;;;;;;5066210;28;20020;-60
2023/01/05 04:59:44;;;;;;;1.25;0.73;;;11.20;99.90;;;;;;5064725;28;20384;-60
2023/01/05 05:02:10;;;;;;;2.80;0.82;;;11.30;99.90;;;;;;5064793;28;20040;-60
2023/01/05 05:04:36;;;;;;;1.00;0.70;;;11.30;99.90;;;;;;5064733;28;20029;-60
2023/01/05 05:07:01;;;;;;;0.95;0.73;;;11.30;99.90;;;;;;5098149;28;20452;-60
2023/01/05 05:09:27;;;;;;;2.55;1.10;;;11.30;99.90;;;;;;5064824;28;20059;-60
2023/01/05 05:11:53;;;;;;;3.30;0.80;;;11.30;99.90;;;;;;5064630;28;20036;-60
2023/01/05 05:14:18;;;;;;;0.82;0.70;;;11.30;99.90;;;;;;5064449;28;20487;-59
2023/01/05 05:16:44;;;;;;;12.95;1.17;;;11.30;99.90;;;;;;5097911;28;20067;-61
2023/01/05 05:19:09;;;;;;;1.42;0.95;;;11.30;99.90;;;;;;5065853;28;20029;-60
2023/01/05 05:21:35;;;;;;;2.13;0.50;;;11.30;99.90;;;;;;5064267;28;20059;-60
2023/01/05 05:24:00;;;;;;;2.58;0.70;;;11.30;99.90;;;;;;5065682;28;20039;-60
2023/01/05 05:26:26;;;;;;;1.20;0.80;;;11.30;99.90;;;;;;5064869;28;20461;-60
2023/01/05 05:28:51;;;;;;;1.35;0.60;;;11.30;99.90;;;;;;5065334;28;20048;-60
2023/01/05 05:31:17;;;;;;;3.85;0.63;;;11.30;99.90;;;;;;5065164;28;20022;-60
2023/01/05 05:33:42;;;;;;;6.78;0.88;;;11.30;99.90;;;;;;5064585;28;20465;-60
2023/01/05 05:36:08;;;;;;;1.10;0.80;;;11.30;99.90;;;;;;5066342;28;20052;-60
2023/01/05 05:38:34;;;;;;;3.50;0.70;;;11.30;99.90;;;;;;5064121;28;20037;-60
2023/01/05 05:40:59;;;;;;;2.55;0.60;;;11.30;99.90;;;;;;5065715;28;20052;-60
2023/01/05 05:43:25;;;;;;;2.25;0.70;;;11.30;99.90;;;;;;5063705;28;20036;-60
2023/01/05 05:45:50;;;;;;;3.63;0.70;;;11.30;99.90;;;;;;5064082;28;20464;-60
2023/01/05 05:48:16;;;;;;;6.45;0.80;;;11.30;99.90;;;;;;5065278;28;20426;-60
2023/01/05 05:50:43;;;;;;;0.57;0.57;;;11.30;99.90;;;;;;5065424;28;20021;-60
2023/01/05 05:53:08;;;;;;;0.90;0.68;;;11.30;99.90;;;;;;5097222;28;20032;-60
2023/01/05 05:55:34;;;;;;;1.63;0.63;;;11.30;99.90;;;;;;5063942;28;20025;-60
2023/01/05 05:58:00;;;;;;;1.90;0.93;;;11.30;99.90;;;;;;5065075;28;20044;-60
2023/01/05 06:00:25;;;;;;;0.73;0.50;;;11.30;99.90;;;;;;5063947;28;20032;-60
2023/01/05 06:02:51;;;;;;;1.05;0.63;;;11.20;99.90;;;;;;5064402;28;20512;-60
2023/01/05 06:05:16;;;;;;;0.50;0.40;;;11.20;99.90;;;;;;5065362;28;20063;-60
2023/01/05 06:07:42;;;;;;;2.03;0.88;;;11.20;99.90;;;;;;5063731;28;20159;-60
2023/01/05 06:10:08;;;;;;;0.75;0.47;;;11.20;99.90;;;;;;5063679;28;20033;-60
2023/01/05 06:12:33;;;;;;;1.30;0.50;;;11.20;99.90;;;;;;5064925;28;20036;-60
2023/01/05 06:14:59;;;;;;;0.75;0.50;;;11.20;99.90;;;;;;5065111;28;20124;-60
2023/01/05 06:17:24;;;;;;;0.77;0.50;;;11.20;99.90;;;;;;5063521;28;20025;-60
2023/01/05 06:19:50;;;;;;;0.90;0.60;;;11.20;99.90;;;;;;5064832;28;20055;-60
2023/01/05 06:22:15;;;;;;;0.57;0.32;;;11.30;99.90;;;;;;5063636;28;20029;-60
2023/01/05 06:24:41;;;;;;;2.70;0.60;;;11.20;99.90;;;;;;5063580;28;20044;-60
2023/01/05 06:27:06;;;;;;;0.50;0.50;;;11.30;99.90;;;;;;5064556;28;20025;-60
2023/01/05 06:29:32;;;;;;;0.50;0.50;;;11.20;99.90;;;;;;5063535;28;20064;-60
2023/01/05 06:31:57;;;;;;;1.50;0.50;;;11.20;99.90;;;;;;5063494;28;20445;-60
2023/01/05 06:34:23;;;;;;;0.55;0.43;;;11.20;99.90;;;;;;5062995;28;20182;-60
2023/01/05 06:36:48;;;;;;;2.28;0.57;;;11.20;99.90;;;;;;5063302;28;20048;-60
2023/01/05 06:39:14;;;;;;;0.77;0.70;;;11.20;99.90;;;;;;5064619;28;20442;-60
2023/01/05 06:41:39;;;;;;;1.10;0.40;;;11.20;99.90;;;;;;5063088;28;20033;-61
2023/01/05 06:44:05;;;;;;;2.25;0.55;;;11.20;99.90;;;;;;5063094;28;20104;-60
2023/01/05 06:46:31;;;;;;;2.47;0.50;;;11.20;99.90;;;;;;5064583;28;20025;-60
2023/01/05 06:48:56;;;;;;;1.60;0.68;;;11.20;99.90;;;;;;5064340;28;20036;-60
2023/01/05 06:51:22;;;;;;;1.80;0.90;;;11.20;99.90;;;;;;5064461;28;20044;-60
2023/01/05 06:53:47;;;;;;;0.88;0.60;;;11.20;99.90;;;;;;5062801;28;20111;-60
2023/01/05 06:56:13;;;;;;;0.73;0.50;;;11.30;99.90;;;;;;5064229;28;20063;-60
2023/01/05 06:58:38;;;;;;;0.75;0.60;;;11.20;99.90;;;;;;5062794;28;20048;-60
2023/01/05 07:01:04;;;;;;;5.70;1.55;;;11.20;99.90;;;;;;5046217;28;20104;-60
2023/01/05 07:03:29;;;;;;;11.23;1.38;;;11.20;99.90;;;;;;5064000;28;20033;-60
2023/01/05 07:05:55;;;;;;;22.17;2.00;;;11.20;99.90;;;;;;5062948;28;20086;-60
2023/01/05 07:08:20;;;;;;;35.45;3.15;;;11.20;99.90;;;;;;5065137;28;20037;-61
2023/01/05 07:10:46;;;;;;;19.10;2.70;;;11.20;99.90;;;;;;5068242;28;20021;-60
2023/01/05 07:13:11;;;;;;;19.75;2.05;;;11.20;99.90;;;;;;5083582;28;20025;-60
2023/01/05 07:15:37;;;;;;;10.63;1.42;;;11.30;99.90;;;;;;5088041;28;20490;-60
2023/01/05 07:18:03;;;;;;;12.65;1.48;;;11.20;99.90;;;;;;5086652;28;20029;-60
2023/01/05 07:20:28;;;;;;;19.08;1.92;;;11.20;99.90;;;;;;5086378;28;20028;-60
2023/01/05 07:22:54;;;;;;;3.75;1.08;;;11.20;99.90;;;;;;5088023;28;20024;-60
2023/01/05 07:25:19;;;;;;;13.50;1.35;;;11.20;99.90;;;;;;5088312;28;20024;-60
2023/01/05 07:27:50;;;;;;;14.00;1.60;;;11.20;99.90;;;;;;5086853;28;20036;-60
2023/01/05 07:30:15;;;;;;;4.60;1.33;;;11.20;99.90;;;;;;5086587;28;20063;-60
2023/01/05 07:32:41;;;;;;;13.65;1.38;;;11.20;99.90;;;;;;5086540;28;20028;-60
2023/01/05 07:35:07;;;;;;;10.88;1.45;;;11.20;99.90;;;;;;5087881;28;20032;-60
2023/01/05 07:37:32;;;;;;;3.90;1.23;;;11.20;99.90;;;;;;5087669;28;20038;-60
2023/01/05 07:39:58;;;;;;;9.55;1.60;;;11.30;99.90;;;;;;5086230;28;20028;-60
2023/01/05 07:42:24;;;;;;;15.27;1.52;;;11.20;99.90;;;;;;5087474;28;20035;-60
2023/01/05 07:44:51;;;;;;;15.55;1.20;;;11.30;99.90;;;;;;5087515;28;20096;-60
2023/01/05 07:47:17;;;;;;;11.45;1.60;;;11.30;99.90;;;;;;5084475;28;20063;-60
2023/01/05 07:49:42;;;;;;;15.50;1.50;;;11.30;99.90;;;;;;5068419;28;20025;-60
2023/01/05 07:52:08;;;;;;;14.93;1.58;;;11.30;99.90;;;;;;5069508;28;20025;-60
2023/01/05 07:54:33;;;;;;;11.63;2.00;;;11.30;99.90;;;;;;5069099;28;20036;-60
2023/01/05 07:56:59;;;;;;;15.93;1.65;;;11.30;99.90;;;;;;5067198;28;20107;-60
2023/01/05 07:59:24;;;;;;;7.25;1.40;;;11.30;99.90;;;;;;5087360;28;20035;-60
2023/01/05 08:01:50;;;;;;;4.43;1.17;;;11.30;99.90;;;;;;5085194;28;20037;-60
2023/01/05 08:04:15;;;;;;;5.32;1.10;;;11.30;99.90;;;;;;5104246;28;20047;-60
2023/01/05 08:06:41;;;;;;;2.90;0.93;;;11.30;99.90;;;;;;5106425;28;20032;-60
2023/01/05 08:11:58;;;;;;;9.85;1.00;;;11.30;99.90;;;;;;5082870;28;20040;-60
2023/01/05 08:14:24;;;;;;;7.93;1.10;;;11.30;99.90;;;;;;5105442;28;20118;-60
2023/01/05 08:16:49;;;;;;;9.93;1.30;;;11.40;99.90;;;;;;5105892;28;20109;-60
2023/01/05 08:19:15;;;;;;;5.95;1.30;;;11.40;99.90;;;;;;5105810;28;20032;-60
2023/01/05 08:21:40;;;;;;;2.83;0.80;;;11.40;99.90;;;;;;5107217;28;20024;-60
2023/01/05 08:24:06;;;;;;;5.10;1.00;;;11.40;99.90;;;;;;5105683;28;20086;-60
2023/01/05 08:26:32;;;;;;;4.47;1.10;;;11.40;99.90;;;;;;5106983;28;20057;-60
2023/01/05 08:28:57;;;;;;;11.52;1.50;;;11.40;99.90;;;;;;5088823;28;20086;-60
2023/01/05 08:31:27;;;;;;;14.60;2.03;;;11.40;99.90;;;;;;5105477;28;20062;-61
2023/01/05 08:33:58;;;;;;;7.50;1.27;;;11.40;99.90;;;;;;5105819;28;20090;-60
2023/01/05 08:36:24;;;;;;;6.70;1.20;;;11.40;99.90;;;;;;5105756;28;20027;-60
2023/01/05 08:38:51;;;;;;;14.10;1.95;;;11.40;99.90;;;;;;5105722;28;20028;-60
2023/01/05 08:41:17;;;;;;;8.88;1.10;;;11.50;99.90;;;;;;5106977;28;20085;-60
2023/01/05 08:43:43;;;;;;;9.88;1.90;;;11.50;99.90;;;;;;5105300;28;20032;-60
2023/01/05 08:46:08;;;;;;;13.15;1.45;;;11.40;99.90;;;;;;5105236;28;20083;-60
2023/01/05 08:48:34;;;;;;;8.93;1.38;;;11.50;99.90;;;;;;5105153;28;20028;-60
2023/01/05 08:51:02;;;;;;;18.95;1.30;;;11.50;99.90;;;;;;5105138;28;20045;-60
2023/01/05 08:53:28;;;;;;;17.42;1.70;;;11.50;99.90;;;;;;5104831;28;20112;-60
2023/01/05 08:55:54;;;;;;;10.20;1.40;;;11.50;99.90;;;;;;5105104;28;20064;-60
2023/01/05 08:58:19;;;;;;;12.65;1.75;;;11.60;99.90;;;;;;5104875;28;20348;-60
2023/01/05 09:00:45;;;;;;;11.20;2.00;;;11.50;99.90;;;;;;5105172;28;20027;-60
2023/01/05 09:03:10;;;;;;;31.98;3.28;;;11.50;99.90;;;;;;5104816;28;20024;-60
2023/01/05 09:05:36;;;;;;;29.00;2.85;;;11.50;99.90;;;;;;5104989;28;20024;-60
2023/01/05 09:08:01;;;;;;;14.80;1.58;;;11.50;99.90;;;;;;5104993;28;20024;-60
2023/01/05 09:10:27;;;;;;;15.15;1.98;;;11.50;99.90;;;;;;5104874;28;20163;-60
2023/01/05 09:12:52;;;;;;;11.15;1.90;;;11.60;99.90;;;;;;5097134;28;20013;-60
2023/01/05 09:15:18;;;;;;;28.48;3.05;;;11.60;99.90;;;;;;5084078;28;20044;-60
2023/01/05 09:17:43;;;;;;;21.48;3.35;;;11.60;99.90;;;;;;5081972;28;20403;-60
2023/01/05 09:20:09;;;;;;;261.90;18.50;;;11.60;99.90;;;;;;5085262;28;20025;-60
2023/01/05 09:22:35;;;;;;;53.40;5.72;;;11.70;99.90;;;;;;5067410;28;20017;-60
2023/01/05 09:25:01;;;;;;;69.88;5.75;;;11.60;99.90;;;;;;5085672;28;20032;-60
2023/01/05 09:27:26;;;;;;;55.35;5.90;;;11.60;99.90;;;;;;5082494;28;20056;-61
2023/01/05 09:29:52;;;;;;;34.90;4.32;;;11.70;99.90;;;;;;5084295;28;20037;-60
2023/01/05 09:32:17;;;;;;;44.88;4.78;;;11.70;99.90;;;;;;5100580;28;20051;-60
2023/01/05 09:34:43;;;;;;;57.45;5.32;;;11.70;99.90;;;;;;5083294;28;20033;-60
2023/01/05 09:37:09;;;;;;;53.90;5.78;;;11.80;99.90;;;;;;5083752;28;20063;-60
2023/01/05 09:39:34;;;;;;;44.55;4.45;;;11.70;99.90;;;;;;5084219;28;20028;-60
2023/01/05 09:42:01;;;;;;;60.53;6.95;;;11.80;99.90;;;;;;5084798;28;20017;-60
2023/01/05 09:44:29;;;;;;;70.70;7.05;;;11.80;99.90;;;;;;5066150;28;20037;-60
2023/01/05 09:47:15;;;;;;;51.05;5.72;;;11.80;99.90;;;;;;5050063;28;20036;-60
2023/01/05 09:49:41;;;;;;;69.78;6.20;;;11.80;99.90;;;;;;5069181;28;20036;-60
2023/01/05 09:52:09;;;;;;;67.53;8.32;;;11.80;99.90;;;;;;5067038;28;20108;-60
2023/01/05 09:54:35;;;;;;;106.78;9.00;;;11.90;99.90;;;;;;5067156;28;20059;-60
2023/01/05 09:57:01;;;;;;;83.47;8.32;;;11.90;99.90;;;;;;5066416;28;20029;-60
2023/01/05 09:59:37;;;;;;;71.03;7.38;;;11.90;99.90;;;;;;5082179;28;20036;-60
2023/01/05 10:02:09;;;;;;;69.97;7.40;;;12.00;99.90;;;;;;5082483;28;20054;-60
2023/01/05 10:04:35;;;;;;;85.28;10.40;;;12.00;99.90;;;;;;5067149;28;20108;-60
2023/01/05 10:07:03;;;;;;;96.97;8.20;;;12.00;99.90;;;;;;5081714;28;20472;-61
2023/01/05 10:09:38;;;;;;;92.93;7.97;;;12.00;99.90;;;;;;5066101;28;20046;-60
2023/01/05 10:15:23;;;;;;;128.88;11.23;;;12.10;99.90;;;;;;5082518;28;20039;-60
2023/01/05 10:17:49;;;;;;;104.80;11.18;;;12.10;99.90;;;;;;5068269;28;20032;-60
2023/01/05 10:20:48;;;;;;;122.18;12.77;;;12.20;99.90;;;;;;5084541;28;20059;-60
2023/01/05 10:23:38;;;;;;;122.85;12.18;;;12.20;99.90;;;;;;5082225;28;20020;-60
2023/01/05 10:26:25;;;;;;;127.25;13.02;;;12.20;99.90;;;;;;5083548;28;20100;-61
2023/01/05 10:28:51;;;;;;;138.32;14.82;;;12.20;99.90;;;;;;5080368;28;20025;-60
2023/01/05 10:31:27;;;;;;;158.52;15.38;;;12.30;99.90;;;;;;5086853;28;20030;-60
2023/01/05 10:33:59;;;;;;;187.25;17.67;;;12.30;99.90;;;;;;5089941;28;20031;-60
2023/01/05 10:37:03;;;;;;;171.45;17.67;;;12.30;99.90;;;;;;5081123;28;20714;-60
2023/01/05 10:39:43;;;;;;;141.00;18.13;;;12.40;99.90;;;;;;5075684;28;20358;-60
2023/01/05 10:42:33;;;;;;;134.20;16.65;;;12.40;99.90;;;;;;5079531;28;20033;-60
2023/01/05 10:44:58;;;;;;;170.50;16.90;;;12.40;99.90;;;;;;5083933;28;20094;-60
2023/01/05 10:47:25;;;;;;;162.30;17.25;;;12.40;99.90;;;;;;5102923;28;20028;-60
2023/01/05 10:49:50;;;;;;;170.65;17.65;;;12.50;99.90;;;;;;5084948;28;20038;-60
2023/01/05 10:52:18;;;;;;;222.82;22.52;;;12.50;99.90;;;;;;5082838;28;20095;-60
2023/01/05 10:54:50;;;;;;;160.25;19.15;;;12.50;99.90;;;;;;5080287;28;20067;-60
2023/01/05 10:57:31;;;;;;;162.55;20.15;;;12.60;99.90;;;;;;5068983;28;20029;-60
2023/01/05 11:00:00;;;;;;;178.68;19.73;;;12.60;99.90;;;;;;5084353;28;20084;-60
2023/01/05 11:02:30;;;;;;;200.00;21.48;;;12.60;99.90;;;;;;5093789;28;20039;-60
2023/01/05 11:05:02;;;;;;;194.77;21.77;;;12.60;99.90;;;;;;5062414;28;20045;-60
2023/01/05 11:07:27;;;;;;;217.85;22.05;;;12.60;99.90;;;;;;5082481;28;20029;-59
2023/01/05 11:09:53;;;;;;;167.98;19.67;;;12.70;99.90;;;;;;5086374;28;20040;-60
2023/01/05 11:12:22;;;;;;;216.77;22.55;;;12.70;99.90;;;;;;5084785;28;20028;-57
2023/01/05 11:14:53;;;;;;;262.02;26.70;;;12.70;99.90;;;;;;5086240;28;20172;-57
2023/01/05 11:17:20;;;;;;;239.50;27.08;;;12.70;99.90;;;;;;5084637;28;20036;-57
2023/01/05 11:19:51;;;;;;;239.50;23.65;;;12.70;99.90;;;;;;5093053;28;20117;-56
2023/01/05 11:22:36;;;;;;;233.88;25.85;;;12.70;99.90;;;;;;5091817;28;20122;-56
2023/01/05 11:25:14;;;;;;;265.42;27.70;;;12.80;99.90;;;;;;5085336;28;20051;-56
2023/01/05 11:27:39;;;;;;;230.90;25.85;;;12.80;99.90;;;;;;5084288;28;20375;-57
2023/01/05 11:30:14;;;;;;;279.38;27.95;;;12.90;99.90;;;;;;5047613;28;20197;-57
2023/01/05 11:32:43;;;;;;;283.05;27.98;;;12.90;99.90;;;;;;5082982;28;20036;-57
2023/01/05 11:35:21;;;;;;;271.45;28.25;;;12.90;99.90;;;;;;5064464;28;20040;-57
2023/01/05 11:37:46;;;;;;;243.45;25.02;;;12.90;99.90;;;;;;5082253;28;20119;-56
2023/01/05 11:40:16;;;;;;;259.42;27.98;;;13.00;99.90;;;;;;5081566;28;20084;-56
2023/01/05 11:42:43;;;;;;;231.10;25.60;;;13.00;99.90;;;;;;5098322;28;20101;-57
2023/01/05 11:45:23;;;;;;;271.05;27.90;;;13.00;99.90;;;;;;5067863;28;20036;-57
2023/01/05 11:47:51;;;;;;;240.07;24.70;;;13.00;99.90;;;;;;5082381;28;20500;-57
2023/01/05 11:50:20;;;;;;;233.63;26.55;;;13.00;99.90;;;;;;5063601;28;20056;-57
2023/01/05 11:52:50;;;;;;;243.02;27.40;;;13.00;99.90;;;;;;5083022;28;20021;-57
2023/01/05 11:55:18;;;;;;;231.90;25.80;;;13.00;99.90;;;;;;5081693;28;20032;-57
2023/01/05 11:57:44;;;;;;;258.80;25.45;;;13.00;99.90;;;;;;5083568;28;20032;-54
2023/01/05 12:00:39;;;;;;;245.85;26.20;;;13.00;99.90;;;;;;5095847;28;20392;-57
2023/01/05 12:03:39;;;;;;;243.35;26.88;;;13.00;99.90;;;;;;5087349;28;20024;-57
2023/01/05 12:06:38;;;;;;;277.60;28.23;;;13.10;99.90;;;;;;5083898;28;20092;-57
2023/01/05 12:09:19;;;;;;;257.75;28.42;;;13.10;99.90;;;;;;5068180;28;20037;-56
2023/01/05 12:12:00;;;;;;;237.73;25.85;;;13.10;99.90;;;;;;5069222;28;20621;-57
2023/01/05 12:14:37;;;;;;;249.50;26.65;;;13.10;99.90;;;;;;5079260;28;20028;-56
2023/01/05 12:17:09;;;;;;;281.70;29.15;;;13.20;99.90;;;;;;5081621;28;20028;-57
2023/01/05 12:19:48;;;;;;;285.40;29.45;;;13.20;99.90;;;;;;5080267;28;20028;-57
2023/01/05 12:22:25;;;;;;;285.42;30.10;;;13.20;99.90;;;;;;5086526;28;20082;-56
2023/01/05 12:25:00;;;;;;;291.95;31.52;;;13.20;99.90;;;;;;5083312;28;20048;-57
2023/01/05 12:27:51;;;;;;;258.05;29.98;;;13.20;99.90;;;;;;5084515;28;20033;-57
2023/01/05 12:30:37;;;;;;;280.67;31.17;;;13.30;99.90;;;;;;5085526;28;20048;-56
2023/01/05 12:33:21;;;;;;;315.77;32.28;;;13.30;99.90;;;;;;5081482;28;20029;-57
2023/01/05 12:35:55;;;;;;;296.33;31.27;;;13.30;99.90;;;;;;5087512;28;20048;-57
2023/01/05 12:38:44;;;;;;;299.65;34.70;;;13.30;99.90;;;;;;5071817;28;20020;-57
2023/01/05 12:41:21;;;;;;;316.30;31.58;;;13.30;99.90;;;;;;5082298;28;20084;-57
2023/01/05 12:43:51;;;;;;;268.52;29.15;;;13.30;99.90;;;;;;5082587;28;20052;-57
2023/01/05 12:46:39;;;;;;;272.45;29.85;;;13.30;99.90;;;;;;5073166;28;20085;-57
2023/01/05 12:49:10;;;;;;;304.40;35.50;;;13.30;99.90;;;;;;5080906;28;20031;-57
2023/01/05 12:51:45;;;;;;;258.10;32.15;;;13.40;99.90;;;;;;5064533;28;20032;-56
2023/01/05 12:54:30;;;;;;;270.23;29.23;;;13.40;99.90;;;;;;5049580;28;20024;-56
2023/01/05 12:56:59;;;;;;;284.07;29.80;;;13.40;99.90;;;;;;5076563;28;20290;-57
2023/01/05 12:59:50;;;;;;;229.95;26.40;;;13.40;99.90;;;;;;5079270;28;20329;-57
2023/01/05 13:02:31;;;;;;;277.83;33.58;;;13.40;99.90;;;;;;5094126;28;20024;-56
2023/01/05 13:05:11;;;;;;;218.43;24.63;;;13.50;99.90;;;;;;5079427;28;20033;-57
2023/01/05 13:08:04;;;;;;;200.55;26.33;;;13.50;99.90;;;;;;5099484;28;20044;-57
2023/01/05 13:10:32;;;;;;;258.02;28.48;;;13.50;99.90;;;;;;5064230;28;20124;-56
2023/01/05 13:13:01;;;;;;;268.98;30.10;;;13.50;99.90;;;;;;5065421;28;20033;-57
2023/01/05 13:15:35;;;;;;;279.98;29.48;;;13.50;99.90;;;;;;5085081;28;20032;-56
2023/01/05 13:18:00;;;;;;;215.00;26.90;;;13.60;99.90;;;;;;5095628;28;20031;-56
2023/01/05 13:20:42;;;;;;;234.40;26.90;;;13.60;99.90;;;;;;5082591;28;20024;-56
2023/01/05 13:23:15;;;;;;;235.30;25.65;;;13.60;99.90;;;;;;5084174;28;20028;-56